Time;durP1;ratioP1;P1;durP2;ratioP2;P2;SDS_P1;SDS_P2;PMS_P1;PMS_P2;Temp;Humidity;BMP_temperature;BMP_pressure;BME280_temperature;BME280_humidity;BME280_pressure;Samples;Min_cycle;Max_cycle;Signal;HPM_P1;HPM_P2
2021/03/17 00:00:38;;;;;;;8.30;6.68;;;6.10;90.90;;;;;;5078066;28;20103;-78
2021/03/17 00:03:04;;;;;;;8.95;7.00;;;6.10;90.90;;;;;;5095954;28;20041;-78
2021/03/17 00:05:32;;;;;;;9.02;7.18;;;6.20;91.00;;;;;;5094450;28;20062;-78
2021/03/17 00:07:58;;;;;;;9.18;6.97;;;6.20;91.00;;;;;;5094164;28;20036;-78
2021/03/17 00:10:25;;;;;;;8.98;6.90;;;6.20;91.10;;;;;;5095065;28;20558;-78
2021/03/17 00:12:52;;;;;;;8.18;6.57;;;6.20;91.00;;;;;;5095901;28;20446;-78
2021/03/17 00:15:20;;;;;;;6.35;5.07;;;6.20;91.00;;;;;;5095921;28;20027;-78
2021/03/17 00:17:46;;;;;;;5.30;4.60;;;6.20;91.00;;;;;;5077823;28;20366;-78
2021/03/17 00:20:12;;;;;;;7.38;4.82;;;6.20;90.90;;;;;;5095952;28;20035;-78
2021/03/17 00:22:38;;;;;;;6.18;4.63;;;6.10;90.80;;;;;;5077548;28;20035;-78
2021/03/17 00:25:04;;;;;;;5.18;3.90;;;6.10;90.80;;;;;;5061114;28;20111;-78
2021/03/17 00:27:30;;;;;;;4.97;4.00;;;6.10;90.90;;;;;;5077657;28;20028;-78
2021/03/17 00:29:55;;;;;;;7.15;3.55;;;6.10;90.80;;;;;;5095239;28;20035;-78
2021/03/17 00:32:21;;;;;;;6.05;3.97;;;6.10;90.90;;;;;;5040784;28;20025;-78
2021/03/17 00:34:46;;;;;;;5.78;3.78;;;6.10;90.90;;;;;;5054679;28;21742;-78
2021/03/17 00:37:12;;;;;;;4.90;3.60;;;6.10;90.90;;;;;;5077594;28;20026;-78
2021/03/17 00:39:38;;;;;;;6.03;4.53;;;6.10;90.90;;;;;;5095519;28;20365;-77
2021/03/17 00:42:04;;;;;;;5.85;4.80;;;6.10;90.90;;;;;;5077430;28;20031;-78
2021/03/17 00:44:30;;;;;;;6.57;4.88;;;6.10;90.90;;;;;;5077323;28;20507;-78
2021/03/17 00:46:55;;;;;;;7.53;5.05;;;6.10;90.80;;;;;;5095291;28;20067;-78
2021/03/17 00:49:21;;;;;;;6.78;5.30;;;6.10;90.90;;;;;;5077220;28;20043;-78
2021/03/17 00:51:46;;;;;;;7.57;5.22;;;6.00;90.90;;;;;;5076896;28;20465;-78
2021/03/17 00:54:13;;;;;;;5.90;4.82;;;6.00;90.90;;;;;;5077115;28;20552;-78
2021/03/17 00:56:39;;;;;;;9.15;5.25;;;5.90;91.00;;;;;;5095672;28;20043;-78
2021/03/17 00:59:04;;;;;;;6.60;5.22;;;6.00;91.10;;;;;;5094546;28;20048;-78
2021/03/17 01:01:30;;;;;;;5.70;4.75;;;5.90;91.00;;;;;;5077617;28;20066;-78
2021/03/17 01:03:55;;;;;;;7.80;5.40;;;5.90;91.10;;;;;;5095635;28;20536;-78
2021/03/17 01:06:21;;;;;;;7.65;5.32;;;5.90;91.10;;;;;;5095538;28;20032;-78
2021/03/17 01:08:47;;;;;;;6.78;5.05;;;5.90;91.40;;;;;;5095453;28;20028;-78
2021/03/17 01:11:13;;;;;;;7.60;5.13;;;5.90;91.10;;;;;;5095477;28;20063;-78
2021/03/17 01:13:39;;;;;;;6.70;4.70;;;5.90;91.10;;;;;;5095199;28;20028;-78
2021/03/17 01:16:06;;;;;;;6.22;5.22;;;6.00;91.20;;;;;;5095410;28;20353;-78
2021/03/17 01:18:32;;;;;;;7.88;5.43;;;5.90;91.10;;;;;;5095132;28;20478;-78
2021/03/17 01:20:57;;;;;;;6.22;5.40;;;6.00;91.20;;;;;;5095342;28;20062;-78
2021/03/17 01:23:23;;;;;;;6.78;4.93;;;6.00;91.10;;;;;;5077615;28;20400;-78
2021/03/17 01:25:49;;;;;;;5.88;4.57;;;6.00;91.10;;;;;;5077119;28;20035;-78
2021/03/17 01:28:15;;;;;;;6.53;5.25;;;5.90;91.00;;;;;;5095121;28;20039;-78
2021/03/17 01:30:43;;;;;;;7.90;4.78;;;5.90;91.00;;;;;;5076914;28;20435;-78
2021/03/17 01:33:10;;;;;;;6.10;4.80;;;5.90;91.00;;;;;;5094909;28;20028;-78
2021/03/17 01:35:37;;;;;;;6.05;4.65;;;5.90;90.90;;;;;;5076670;28;20028;-78
2021/03/17 01:38:04;;;;;;;6.18;5.25;;;5.90;91.00;;;;;;5076752;28;20028;-78
2021/03/17 01:40:30;;;;;;;5.45;4.70;;;6.00;91.20;;;;;;5076757;28;20028;-78
2021/03/17 01:42:55;;;;;;;5.50;4.80;;;6.00;90.80;;;;;;5095088;28;20069;-78
2021/03/17 01:45:22;;;;;;;5.10;4.60;;;5.90;90.80;;;;;;5094755;28;20032;-78
2021/03/17 01:47:49;;;;;;;8.82;5.78;;;6.00;90.90;;;;;;5094789;28;20047;-78
2021/03/17 01:50:22;;;;;;;6.57;5.45;;;6.00;90.90;;;;;;5076496;28;20034;-78
2021/03/17 01:52:48;;;;;;;10.35;5.70;;;5.90;91.10;;;;;;5094564;28;20032;-78
2021/03/17 01:55:15;;;;;;;7.68;5.70;;;5.90;90.70;;;;;;5094464;28;20354;-78
2021/03/17 01:57:41;;;;;;;7.97;5.28;;;5.80;90.80;;;;;;5094289;28;20473;-78
2021/03/17 02:00:09;;;;;;;7.95;5.78;;;5.80;90.90;;;;;;5094631;28;20024;-78
2021/03/17 02:02:37;;;;;;;7.32;5.60;;;5.80;90.90;;;;;;5076288;28;20035;-78
2021/03/17 02:05:08;;;;;;;14.77;6.28;;;5.70;90.80;;;;;;5076425;28;20131;-78
2021/03/17 02:07:34;;;;;;;9.40;5.65;;;5.70;91.00;;;;;;5076181;28;20114;-78
2021/03/17 02:09:59;;;;;;;10.20;7.18;;;5.70;91.30;;;;;;5094135;28;20126;-78
2021/03/17 02:12:37;;;;;;;10.68;7.60;;;5.70;91.10;;;;;;5076315;28;20361;-78
2021/03/17 02:15:43;;;;;;;13.05;8.07;;;5.60;91.20;;;;;;5094279;28;20028;-78
2021/03/17 02:18:31;;;;;;;11.35;8.07;;;5.60;91.30;;;;;;5055957;28;20053;-78
2021/03/17 02:21:14;;;;;;;7.90;6.38;;;5.50;91.40;;;;;;5073882;28;20037;-78
2021/03/17 02:23:58;;;;;;;10.88;8.05;;;5.50;91.50;;;;;;5064134;28;20119;-78
2021/03/17 02:26:36;;;;;;;15.05;8.25;;;5.50;91.40;;;;;;5093985;28;20415;-78
2021/03/17 02:29:22;;;;;;;10.27;7.32;;;5.50;91.40;;;;;;5093897;28;20103;-78
2021/03/17 02:32:09;;;;;;;11.32;7.25;;;5.50;91.50;;;;;;5080477;28;20074;-78
2021/03/17 02:34:45;;;;;;;11.52;7.10;;;5.50;91.50;;;;;;5075293;28;20028;-78
2021/03/17 02:37:18;;;;;;;10.95;7.30;;;5.50;91.50;;;;;;5074231;28;20032;-78
2021/03/17 02:39:55;;;;;;;9.48;6.57;;;5.50;91.50;;;;;;5092645;28;20103;-78
2021/03/17 02:42:43;;;;;;;12.07;7.93;;;5.40;91.50;;;;;;5093509;28;20529;-78
2021/03/17 02:45:12;;;;;;;10.33;7.50;;;5.50;91.60;;;;;;5092980;28;20060;-78
2021/03/17 02:47:47;;;;;;;10.43;7.70;;;5.50;91.60;;;;;;5093254;28;20277;-79
2021/03/17 02:50:14;;;;;;;17.83;12.43;;;5.50;91.60;;;;;;5074977;28;20385;-78
2021/03/17 02:52:44;;;;;;;18.20;14.45;;;5.50;91.50;;;;;;5058898;28;20028;-78
2021/03/17 02:55:12;;;;;;;14.77;12.77;;;5.50;91.50;;;;;;5093856;28;20095;-78
2021/03/17 02:57:40;;;;;;;13.45;11.65;;;5.40;91.60;;;;;;5075154;28;20103;-78
2021/03/17 03:00:10;;;;;;;13.43;10.67;;;5.40;91.60;;;;;;5093477;28;20583;-78
2021/03/17 03:02:36;;;;;;;15.77;10.52;;;5.50;91.70;;;;;;5093420;28;20016;-78
2021/03/17 03:05:03;;;;;;;14.85;10.85;;;5.40;91.70;;;;;;5058836;28;20036;-78
2021/03/17 03:07:31;;;;;;;13.10;9.88;;;5.50;91.70;;;;;;5093310;28;20073;-78
2021/03/17 03:09:57;;;;;;;11.63;9.13;;;5.50;91.70;;;;;;5075594;28;20036;-78
2021/03/17 03:12:24;;;;;;;10.65;8.25;;;5.50;91.70;;;;;;5075169;28;20090;-78
2021/03/17 03:14:53;;;;;;;11.75;8.88;;;5.50;91.40;;;;;;5093370;28;20435;-78
2021/03/17 03:17:19;;;;;;;11.13;9.57;;;5.40;91.40;;;;;;5075105;28;20480;-78
2021/03/17 03:19:51;;;;;;;11.13;8.95;;;5.40;91.50;;;;;;5093212;28;20032;-78
2021/03/17 03:22:18;;;;;;;10.70;8.48;;;5.40;91.70;;;;;;5076620;28;20069;-78
2021/03/17 03:24:44;;;;;;;12.55;10.20;;;5.40;91.70;;;;;;5079112;28;20043;-78
2021/03/17 03:27:12;;;;;;;8.63;7.68;;;5.40;91.80;;;;;;5079267;28;20039;-78
2021/03/17 03:29:38;;;;;;;14.13;9.05;;;5.40;91.80;;;;;;5097389;28;20032;-77
2021/03/17 03:32:05;;;;;;;9.40;7.53;;;5.40;91.80;;;;;;5079276;28;20043;-78
2021/03/17 03:34:31;;;;;;;9.23;7.65;;;5.40;91.80;;;;;;5079139;28;20024;-77
2021/03/17 03:36:57;;;;;;;11.00;8.73;;;5.50;91.80;;;;;;5097235;28;20030;-78
2021/03/17 03:39:22;;;;;;;8.13;7.20;;;5.50;91.90;;;;;;5096965;28;20024;-78
2021/03/17 03:41:48;;;;;;;11.85;8.45;;;5.40;91.90;;;;;;5096993;28;20028;-78
2021/03/17 03:44:14;;;;;;;9.65;7.40;;;5.40;91.90;;;;;;5062339;28;20026;-77
2021/03/17 03:46:40;;;;;;;11.55;7.28;;;5.40;91.90;;;;;;5079314;28;20427;-78
2021/03/17 03:49:06;;;;;;;10.45;8.32;;;5.50;92.00;;;;;;5062201;28;20024;-78
2021/03/17 03:51:33;;;;;;;18.77;14.27;;;5.50;92.00;;;;;;5097078;28;20028;-77
2021/03/17 03:54:24;;;;;;;15.80;11.02;;;5.50;92.10;;;;;;5078812;28;20032;-77
2021/03/17 03:57:03;;;;;;;16.63;10.05;;;5.40;92.20;;;;;;5096665;28;20484;-77
2021/03/17 03:59:31;;;;;;;;;;;5.40;92.30;;;;;;5097254;28;20044;-77
2021/03/17 04:02:00;;;;;;;17.30;10.52;;;5.30;92.30;;;;;;5096503;28;19998;-78
2021/03/17 04:04:29;;;;;;;14.80;10.20;;;5.30;92.40;;;;;;5096662;28;20066;-78
2021/03/17 04:06:57;;;;;;;16.73;11.18;;;5.30;92.50;;;;;;5096422;28;20277;-78
2021/03/17 04:09:31;;;;;;;16.73;11.93;;;5.30;92.50;;;;;;5096654;28;20020;-78
2021/03/17 04:11:59;;;;;;;16.98;12.48;;;5.40;92.50;;;;;;5096293;28;20077;-78
2021/03/17 04:14:29;;;;;;;12.80;10.40;;;5.40;92.50;;;;;;5096445;28;20397;-78
2021/03/17 04:17:01;;;;;;;17.95;12.23;;;5.40;92.50;;;;;;5096617;28;20427;-78
2021/03/17 04:19:28;;;;;;;15.98;11.48;;;5.40;92.50;;;;;;5096334;28;20085;-78
2021/03/17 04:21:55;;;;;;;14.88;11.65;;;5.40;92.60;;;;;;5096435;28;20107;-78
2021/03/17 04:24:23;;;;;;;21.55;14.55;;;5.40;92.60;;;;;;5096504;28;20025;-78
2021/03/17 04:26:50;;;;;;;15.20;11.50;;;5.40;92.60;;;;;;5096322;28;20133;-78
2021/03/17 04:29:18;;;;;;;18.02;13.23;;;5.40;92.70;;;;;;5096345;28;20020;-78
2021/03/17 04:31:44;;;;;;;20.00;14.55;;;5.40;92.70;;;;;;5096022;28;20035;-77
2021/03/17 04:34:12;;;;;;;21.98;15.20;;;5.40;92.70;;;;;;5077862;28;20045;-78
2021/03/17 04:36:38;;;;;;;19.70;13.07;;;5.40;92.70;;;;;;5077974;28;20038;-78
2021/03/17 04:39:04;;;;;;;20.08;14.50;;;5.40;92.80;;;;;;5096114;28;20024;-78
2021/03/17 04:41:30;;;;;;;19.98;14.63;;;5.30;92.80;;;;;;5095816;28;20030;-78
2021/03/17 04:43:56;;;;;;;24.55;15.98;;;5.40;92.90;;;;;;5077654;28;20036;-78
2021/03/17 04:46:22;;;;;;;24.17;16.77;;;5.30;92.90;;;;;;5061190;28;20056;-78
2021/03/17 04:48:48;;;;;;;24.55;16.63;;;5.30;93.20;;;;;;5077875;28;20127;-78
2021/03/17 04:51:18;;;;;;;23.08;15.50;;;5.30;93.00;;;;;;5078108;28;20445;-78
2021/03/17 04:53:44;;;;;;;22.75;15.57;;;5.20;93.00;;;;;;5095537;28;20028;-78
2021/03/17 04:56:12;;;;;;;25.30;16.90;;;5.20;93.10;;;;;;5077600;28;20024;-78
2021/03/17 04:58:40;;;;;;;25.77;17.52;;;5.30;93.20;;;;;;5095299;28;20047;-78
2021/03/17 05:01:08;;;;;;;25.25;17.30;;;5.20;93.20;;;;;;5095663;28;20028;-78
2021/03/17 05:03:36;;;;;;;24.52;16.60;;;5.20;93.30;;;;;;5095676;28;20020;-77
2021/03/17 05:06:04;;;;;;;28.75;18.33;;;5.20;93.30;;;;;;5061016;28;20144;-78
2021/03/17 05:08:31;;;;;;;26.15;17.02;;;5.30;93.40;;;;;;5095854;28;20032;-78
2021/03/17 05:10:58;;;;;;;29.30;19.55;;;5.20;93.60;;;;;;5060746;28;20043;-77
2021/03/17 05:13:24;;;;;;;26.52;18.45;;;5.20;93.30;;;;;;5095056;28;20044;-78
2021/03/17 05:15:50;;;;;;;25.17;17.73;;;5.20;93.40;;;;;;5095020;28;20016;-78
2021/03/17 05:18:18;;;;;;;33.28;19.73;;;5.20;93.40;;;;;;5095385;28;20016;-78
2021/03/17 05:20:47;;;;;;;24.05;16.48;;;5.20;93.40;;;;;;5095055;28;20056;-77
2021/03/17 05:23:14;;;;;;;24.67;17.77;;;5.30;93.50;;;;;;5094590;28;20020;-78
2021/03/17 05:25:41;;;;;;;27.35;18.35;;;5.20;93.40;;;;;;5075927;28;20511;-77
2021/03/17 05:28:06;;;;;;;26.73;18.63;;;5.20;93.40;;;;;;5076119;28;20127;-78
2021/03/17 05:30:38;;;;;;;24.15;17.42;;;5.30;93.40;;;;;;5076992;28;20107;-78
2021/03/17 05:33:08;;;;;;;23.02;16.05;;;5.30;93.50;;;;;;5076897;28;20469;-78
2021/03/17 05:35:34;;;;;;;27.10;18.48;;;5.30;93.40;;;;;;5095104;28;20024;-78
2021/03/17 05:38:01;;;;;;;27.00;18.65;;;5.30;93.40;;;;;;5095356;28;20016;-78
2021/03/17 05:40:27;;;;;;;27.33;17.35;;;5.30;93.40;;;;;;5094873;28;20091;-78
2021/03/17 05:42:53;;;;;;;24.90;17.48;;;5.30;93.40;;;;;;5094439;28;20028;-78
2021/03/17 05:45:21;;;;;;;25.08;17.27;;;5.30;93.40;;;;;;5076557;28;20029;-78
2021/03/17 05:47:50;;;;;;;21.80;15.27;;;5.30;93.50;;;;;;5094798;28;20035;-78
2021/03/17 05:50:19;;;;;;;29.85;18.35;;;5.30;93.50;;;;;;5076644;28;20028;-78
2021/03/17 05:52:45;;;;;;;21.77;15.70;;;5.30;93.50;;;;;;5094884;28;20053;-78
2021/03/17 05:55:12;;;;;;;26.05;16.85;;;5.30;93.50;;;;;;5094675;28;20061;-78
2021/03/17 05:57:41;;;;;;;28.60;17.27;;;5.30;93.50;;;;;;5059680;28;20393;-78
2021/03/17 06:00:09;;;;;;;26.83;17.50;;;5.30;93.60;;;;;;5094060;28;20177;-78
2021/03/17 06:02:39;;;;;;;33.28;17.67;;;5.20;93.70;;;;;;5076186;28;20028;-77
2021/03/17 06:05:07;;;;;;;22.95;16.35;;;5.20;93.80;;;;;;5094230;28;20485;-77
2021/03/17 06:07:49;;;;;;;22.63;15.65;;;5.30;93.80;;;;;;5093987;28;20106;-78
2021/03/17 06:10:16;;;;;;;27.35;17.42;;;5.30;93.80;;;;;;5094662;28;20016;-78
2021/03/17 06:12:47;;;;;;;25.83;17.40;;;5.30;93.80;;;;;;5094654;28;20119;-78
2021/03/17 06:15:15;;;;;;;26.45;17.77;;;5.30;93.80;;;;;;5094066;28;20028;-78
2021/03/17 06:17:43;;;;;;;24.97;17.83;;;5.30;93.80;;;;;;5076295;28;20028;-78
2021/03/17 06:20:11;;;;;;;28.55;18.77;;;5.30;93.80;;;;;;5075566;28;20278;-78
2021/03/17 06:22:37;;;;;;;28.08;19.13;;;5.30;93.80;;;;;;5076002;28;20569;-77
2021/03/17 06:25:06;;;;;;;26.30;17.73;;;5.30;93.80;;;;;;5076179;28;20031;-78
2021/03/17 06:27:35;;;;;;;22.90;15.40;;;5.30;93.90;;;;;;5093944;28;20032;-77
2021/03/17 06:30:07;;;;;;;26.40;17.70;;;5.40;93.90;;;;;;5093934;28;20137;-78
2021/03/17 06:32:33;;;;;;;23.83;16.65;;;5.40;93.90;;;;;;5075233;28;20028;-77
2021/03/17 06:35:00;;;;;;;26.23;17.42;;;5.40;93.80;;;;;;5093884;28;20102;-78
2021/03/17 06:37:36;;;;;;;26.17;16.95;;;5.40;93.80;;;;;;5093870;28;20074;-78
2021/03/17 06:40:04;;;;;;;26.83;18.00;;;5.40;93.80;;;;;;5093486;28;20020;-77
2021/03/17 06:42:41;;;;;;;28.15;18.35;;;5.40;93.80;;;;;;5075801;28;20028;-77
2021/03/17 06:45:07;;;;;;;32.65;19.33;;;5.40;93.90;;;;;;5093457;28;20028;-77
2021/03/17 06:47:33;;;;;;;33.05;20.23;;;5.40;94.00;;;;;;5075552;28;20028;-77
2021/03/17 06:49:58;;;;;;;29.25;19.15;;;5.40;94.00;;;;;;5093242;28;20039;-77
2021/03/17 06:52:37;;;;;;;39.38;21.48;;;5.40;94.10;;;;;;5075493;28;20032;-77
2021/03/17 06:55:08;;;;;;;34.88;21.00;;;5.40;94.10;;;;;;5055423;28;20485;-77
2021/03/17 06:57:34;;;;;;;28.45;19.52;;;5.40;94.10;;;;;;5054700;28;20027;-78
2021/03/17 07:00:30;;;;;;;31.00;19.42;;;5.40;94.10;;;;;;5073137;28;20393;-78
2021/03/17 07:03:05;;;;;;;26.05;18.05;;;5.50;94.10;;;;;;5073272;28;20047;-77
2021/03/17 07:05:42;;;;;;;25.60;17.30;;;5.40;94.00;;;;;;5093377;28;20020;-78
2021/03/17 07:08:26;;;;;;;32.30;19.20;;;5.40;93.90;;;;;;5093355;28;20384;-78
2021/03/17 07:10:59;;;;;;;29.98;19.77;;;5.40;93.90;;;;;;5092907;28;20020;-78
2021/03/17 07:13:26;;;;;;;35.15;25.02;;;5.40;93.90;;;;;;5075046;28;20130;-78
2021/03/17 07:15:57;;;;;;;29.60;17.88;;;5.50;94.00;;;;;;5075578;28;20025;-78
2021/03/17 07:18:24;;;;;;;26.60;17.80;;;5.50;94.00;;;;;;5075194;28;20040;-78
2021/03/17 07:20:49;;;;;;;26.55;17.42;;;5.50;94.10;;;;;;5075524;28;20032;-77
2021/03/17 07:23:36;;;;;;;27.92;18.77;;;5.50;94.00;;;;;;5093018;28;20097;-78
2021/03/17 07:26:10;;;;;;;22.13;15.27;;;5.60;94.10;;;;;;5092909;28;20051;-77
2021/03/17 07:29:15;;;;;;;24.05;16.08;;;5.70;94.10;;;;;;5092871;28;20492;-77
2021/03/17 07:31:51;;;;;;;23.60;15.90;;;5.60;93.90;;;;;;5075395;28;20052;-78
2021/03/17 07:34:26;;;;;;;25.65;14.93;;;5.60;94.00;;;;;;5093170;28;20039;-78
2021/03/17 07:36:57;;;;;;;21.25;14.75;;;5.70;94.10;;;;;;5075110;28;20099;-78
2021/03/17 07:39:31;;;;;;;33.78;22.80;;;5.70;94.00;;;;;;5093011;28;20024;-77
2021/03/17 07:41:59;;;;;;;32.00;21.40;;;5.70;94.00;;;;;;5092888;28;20419;-77
2021/03/17 07:44:27;;;;;;;23.50;15.50;;;5.70;93.90;;;;;;5074838;28;20385;-78
2021/03/17 07:46:58;;;;;;;19.27;13.48;;;5.80;93.90;;;;;;5058242;28;20487;-77
2021/03/17 07:49:26;;;;;;;19.83;11.55;;;5.80;94.20;;;;;;5074944;28;20028;-77
2021/03/17 07:51:57;;;;;;;16.67;12.38;;;5.80;93.90;;;;;;5094508;28;20051;-77
2021/03/17 07:54:38;;;;;;;13.38;10.27;;;5.90;94.00;;;;;;5093057;28;20128;-78
2021/03/17 07:57:08;;;;;;;14.82;9.65;;;5.90;93.90;;;;;;5074406;28;20032;-78
2021/03/17 07:59:34;;;;;;;11.52;9.13;;;5.90;93.50;;;;;;5092672;28;20039;-78
2021/03/17 08:02:00;;;;;;;10.80;8.60;;;5.90;93.50;;;;;;5074603;28;20397;-78
2021/03/17 08:04:28;;;;;;;8.90;7.05;;;6.00;93.60;;;;;;5074624;28;20030;-77
2021/03/17 08:07:01;;;;;;;15.15;6.05;;;6.10;93.40;;;;;;5075094;28;20106;-78
2021/03/17 08:09:27;;;;;;;6.57;4.88;;;6.20;93.10;;;;;;5077541;28;20427;-78
2021/03/17 08:11:55;;;;;;;8.25;5.32;;;6.20;92.80;;;;;;5096537;28;20032;-78
2021/03/17 08:14:22;;;;;;;7.13;5.47;;;6.30;92.80;;;;;;5080150;28;20032;-78
2021/03/17 08:16:47;;;;;;;6.68;4.93;;;6.40;92.80;;;;;;5061927;28;20036;-78
2021/03/17 08:19:27;;;;;;;9.55;5.88;;;6.40;92.40;;;;;;5077945;28;20077;-78
2021/03/17 08:22:04;;;;;;;8.40;4.90;;;6.40;92.40;;;;;;5077827;28;20573;-78
2021/03/17 08:24:33;;;;;;;6.97;4.43;;;6.40;92.20;;;;;;5095745;28;20073;-77
2021/03/17 08:27:01;;;;;;;4.47;2.65;;;6.40;92.10;;;;;;5096132;28;20019;-77
2021/03/17 08:29:42;;;;;;;4.18;1.65;;;6.30;91.70;;;;;;5095692;28;20082;-77
2021/03/17 08:32:08;;;;;;;5.85;1.20;;;6.20;91.20;;;;;;5095800;28;20043;-77
2021/03/17 08:34:36;;;;;;;6.93;1.52;;;6.00;90.50;;;;;;5060910;28;20056;-77
2021/03/17 08:37:08;;;;;;;5.05;1.33;;;6.00;90.80;;;;;;5078034;28;20056;-77
2021/03/17 08:39:37;;;;;;;3.65;1.00;;;5.90;90.70;;;;;;5096021;28;20066;-77
2021/03/17 08:42:06;;;;;;;4.20;0.65;;;5.80;90.30;;;;;;5096189;28;20016;-77
2021/03/17 08:44:38;;;;;;;3.55;0.90;;;5.80;90.50;;;;;;5096194;28;20489;-77
2021/03/17 08:47:29;;;;;;;3.60;0.70;;;5.80;90.00;;;;;;5077761;28;20028;-78
2021/03/17 08:50:21;;;;;;;1.85;0.50;;;5.70;90.00;;;;;;5096084;28;20043;-78
2021/03/17 08:52:49;;;;;;;3.88;0.80;;;5.70;89.90;;;;;;5066271;28;20224;-77
2021/03/17 08:55:19;;;;;;;6.60;1.00;;;5.70;90.00;;;;;;5077801;28;20385;-78
2021/03/17 08:58:01;;;;;;;2.75;0.70;;;5.70;89.70;;;;;;5095872;28;20066;-77
2021/03/17 09:01:00;;;;;;;3.60;1.02;;;5.80;90.10;;;;;;5077856;28;20082;-78
2021/03/17 09:03:31;;;;;;;4.88;1.17;;;5.80;90.00;;;;;;5075532;28;20099;-77
2021/03/17 09:06:16;;;;;;;4.47;0.80;;;5.70;89.70;;;;;;5075687;28;20066;-77
2021/03/17 09:09:19;;;;;;;7.13;1.13;;;5.70;90.00;;;;;;5075534;28;20107;-78
2021/03/17 09:11:48;;;;;;;1.58;0.68;;;5.70;90.10;;;;;;5064659;28;20447;-78
2021/03/17 09:14:21;;;;;;;;;;;5.90;90.40;;;;;;5075748;28;20040;-78
2021/03/17 09:17:10;;;;;;;5.57;0.90;;;6.10;90.40;;;;;;5075271;28;19961;-78
2021/03/17 09:19:56;;;;;;;3.75;0.93;;;6.40;90.10;;;;;;5074479;28;20029;-78
2021/03/17 09:22:36;;;;;;;8.07;1.52;;;6.60;89.40;;;;;;5075131;28;20489;-78
2021/03/17 09:25:41;;;;;;;6.13;1.33;;;6.90;89.00;;;;;;5075068;28;20031;-77
2021/03/17 09:28:10;;;;;;;15.18;2.08;;;7.20;88.10;;;;;;5062843;28;20040;-78
2021/03/17 09:30:40;;;;;;;3.67;1.73;;;7.30;87.30;;;;;;5074573;28;20017;-78
2021/03/17 09:33:12;;;;;;;5.03;1.30;;;7.40;86.70;;;;;;5056505;28;20033;-78
2021/03/17 09:35:38;;;;;;;5.35;1.67;;;7.50;87.20;;;;;;5091390;28;20043;-78
2021/03/17 09:38:10;;;;;;;9.48;1.75;;;7.60;87.10;;;;;;5060173;28;20022;-78
2021/03/17 09:40:42;;;;;;;3.75;1.33;;;7.60;86.90;;;;;;5076773;28;20016;-78
2021/03/17 09:43:31;;;;;;;4.97;1.50;;;7.70;86.30;;;;;;5095302;28;20031;-78
2021/03/17 09:45:57;;;;;;;3.72;1.63;;;7.60;85.20;;;;;;5076589;28;20410;-78
2021/03/17 09:48:25;;;;;;;2.38;1.25;;;7.60;85.30;;;;;;5094844;28;20039;-78
2021/03/17 09:50:59;;;;;;;4.25;1.75;;;7.50;85.30;;;;;;5076474;28;20542;-78
2021/03/17 09:53:26;;;;;;;5.38;1.60;;;7.40;85.00;;;;;;5094632;28;20466;-78
2021/03/17 09:55:52;;;;;;;3.53;1.30;;;7.40;85.80;;;;;;5076732;28;20031;-78
2021/03/17 09:58:18;;;;;;;5.10;1.70;;;7.40;86.20;;;;;;5076441;28;20040;-79
2021/03/17 10:00:47;;;;;;;3.65;1.58;;;7.50;85.60;;;;;;5094754;28;20034;-78
2021/03/17 10:03:13;;;;;;;6.20;1.85;;;7.60;85.80;;;;;;5076427;28;20042;-78
2021/03/17 10:05:40;;;;;;;3.40;1.30;;;7.80;86.40;;;;;;5094648;28;20417;-78
2021/03/17 10:08:07;;;;;;;5.07;1.23;;;8.20;84.90;;;;;;5076458;28;20123;-78
2021/03/17 10:10:33;;;;;;;4.65;1.50;;;8.40;84.20;;;;;;5056295;28;20059;-78
2021/03/17 10:13:00;;;;;;;2.50;0.88;;;8.40;81.40;;;;;;5074000;28;20037;-78
2021/03/17 10:15:26;;;;;;;4.75;1.10;;;8.30;82.10;;;;;;5074069;28;20023;-79
2021/03/17 10:17:54;;;;;;;4.22;1.40;;;8.10;81.90;;;;;;5073755;28;20429;-78
2021/03/17 10:20:26;;;;;;;5.03;1.27;;;7.90;81.20;;;;;;5039399;28;20032;-78
2021/03/17 10:22:56;;;;;;;4.40;0.90;;;7.80;81.10;;;;;;5055878;28;20599;-78
2021/03/17 10:25:24;;;;;;;2.35;0.65;;;7.90;81.80;;;;;;5039402;28;20028;-78
2021/03/17 10:27:57;;;;;;;2.05;0.68;;;8.20;81.80;;;;;;5056081;28;20031;-78
2021/03/17 10:30:29;;;;;;;2.88;0.63;;;8.50;80.80;;;;;;5073838;28;20386;-78
2021/03/17 10:33:00;;;;;;;4.90;1.00;;;8.80;80.00;;;;;;5055813;28;20050;-79
2021/03/17 10:35:26;;;;;;;4.72;0.95;;;8.90;78.90;;;;;;5073943;28;20027;-79
2021/03/17 10:37:52;;;;;;;5.68;0.75;;;9.00;78.30;;;;;;5073627;28;20024;-78
2021/03/17 10:40:23;;;;;;;1.85;0.70;;;9.00;76.00;;;;;;5073680;28;20056;-78
2021/03/17 10:42:53;;;;;;;2.75;0.65;;;8.90;75.90;;;;;;5073694;28;20032;-78
2021/03/17 10:45:21;;;;;;;4.38;1.10;;;8.70;76.00;;;;;;5055166;28;20020;-78
2021/03/17 10:47:48;;;;;;;9.47;0.80;;;8.40;77.00;;;;;;5073116;28;20052;-78
2021/03/17 10:50:17;;;;;;;1.95;0.68;;;8.20;78.90;;;;;;5073097;28;20024;-78
2021/03/17 10:52:48;;;;;;;3.58;0.70;;;7.80;79.20;;;;;;5055484;28;20055;-78
2021/03/17 10:55:23;;;;;;;2.78;0.57;;;7.50;80.40;;;;;;5058128;28;20043;-78
2021/03/17 10:57:49;;;;;;;2.10;1.15;;;7.20;81.70;;;;;;5055532;28;20021;-78
2021/03/17 11:00:19;;;;;;;3.28;0.80;;;7.10;82.70;;;;;;5055600;28;20040;-78
2021/03/17 11:02:45;;;;;;;2.50;0.90;;;7.10;84.10;;;;;;5055943;28;20032;-78
2021/03/17 11:05:20;;;;;;;3.40;1.60;;;7.20;83.90;;;;;;5079949;28;20032;-78
2021/03/17 11:08:07;;;;;;;3.20;1.60;;;7.50;85.00;;;;;;5093536;28;20081;-78
2021/03/17 11:10:49;;;;;;;2.63;1.20;;;7.70;84.00;;;;;;5093528;28;20024;-78
2021/03/17 11:13:17;;;;;;;6.75;1.42;;;8.00;83.20;;;;;;5075433;28;20024;-78
2021/03/17 11:15:55;;;;;;;4.63;1.40;;;8.40;82.30;;;;;;5075453;28;20047;-78
2021/03/17 11:18:29;;;;;;;3.85;0.80;;;8.60;82.60;;;;;;5093628;28;20606;-78
2021/03/17 11:21:01;;;;;;;1.83;0.70;;;9.00;79.70;;;;;;5075421;28;20051;-78
2021/03/17 11:23:35;;;;;;;4.78;1.05;;;9.10;78.00;;;;;;5093500;28;20038;-78
2021/03/17 11:26:02;;;;;;;3.47;0.60;;;9.00;74.80;;;;;;5093230;28;20024;-78
2021/03/17 11:28:32;;;;;;;1.95;0.63;;;8.80;74.80;;;;;;5075171;28;20368;-77
2021/03/17 11:30:59;;;;;;;;;;;8.50;75.70;;;;;;5075135;28;20063;-77
2021/03/17 11:33:25;;;;;;;2.03;0.82;;;8.40;76.20;;;;;;5092740;28;19911;-79
2021/03/17 11:35:54;;;;;;;1.65;0.80;;;8.20;77.60;;;;;;5093330;28;20016;-78
2021/03/17 11:38:21;;;;;;;3.83;0.70;;;8.20;78.50;;;;;;5093362;28;20017;-78
2021/03/17 11:40:47;;;;;;;3.78;0.60;;;8.10;76.10;;;;;;5075314;28;20032;-78
2021/03/17 11:43:17;;;;;;;4.35;0.80;;;8.00;74.00;;;;;;5076622;28;20032;-78
2021/03/17 11:45:44;;;;;;;1.58;0.40;;;8.00;72.80;;;;;;5097280;28;20070;-78
2021/03/17 11:48:13;;;;;;;2.95;0.82;;;8.10;73.70;;;;;;5061686;28;20034;-78
2021/03/17 11:50:41;;;;;;;2.00;0.65;;;8.20;73.70;;;;;;5096981;28;20034;-78
2021/03/17 11:53:07;;;;;;;2.38;0.63;;;8.20;73.40;;;;;;5078385;28;20053;-78
2021/03/17 11:55:33;;;;;;;4.85;1.13;;;8.30;73.10;;;;;;5095636;28;20434;-78
2021/03/17 11:57:59;;;;;;;2.42;0.80;;;8.30;72.20;;;;;;5096752;28;20056;-78
2021/03/17 12:00:25;;;;;;;3.03;0.95;;;8.30;73.30;;;;;;5096575;28;20067;-78
2021/03/17 12:02:51;;;;;;;5.43;1.10;;;8.30;72.40;;;;;;5060605;28;20043;-77
2021/03/17 12:05:18;;;;;;;2.75;0.80;;;8.30;71.10;;;;;;5078780;28;20438;-78
2021/03/17 12:07:44;;;;;;;4.00;1.02;;;8.30;71.40;;;;;;5096726;28;20035;-77
2021/03/17 12:10:11;;;;;;;3.47;0.88;;;8.20;70.60;;;;;;5078811;28;20028;-78
2021/03/17 12:12:38;;;;;;;3.90;0.80;;;8.20;69.90;;;;;;5061841;28;20149;-78
2021/03/17 12:15:09;;;;;;;6.22;0.80;;;8.20;71.10;;;;;;5078639;28;20039;-78
2021/03/17 12:17:35;;;;;;;4.97;0.68;;;8.30;70.30;;;;;;5077971;28;20032;-77
2021/03/17 12:20:01;;;;;;;2.22;0.80;;;8.30;69.70;;;;;;5097452;28;20032;-78
2021/03/17 12:22:27;;;;;;;5.85;0.93;;;8.30;70.00;;;;;;5096539;28;20036;-78
2021/03/17 12:24:53;;;;;;;4.57;1.17;;;8.30;69.50;;;;;;5096563;28;20024;-78
2021/03/17 12:27:18;;;;;;;5.43;1.10;;;8.20;69.60;;;;;;5096272;28;20016;-78
2021/03/17 12:29:44;;;;;;;6.72;1.35;;;8.10;70.40;;;;;;5078253;28;20032;-78
2021/03/17 12:32:10;;;;;;;5.03;0.80;;;8.20;71.60;;;;;;5061630;28;20067;-78
2021/03/17 12:34:35;;;;;;;6.47;0.90;;;8.40;71.10;;;;;;5096565;28;20035;-77
2021/03/17 12:37:01;;;;;;;3.88;1.00;;;8.50;70.40;;;;;;5061399;28;20115;-78
2021/03/17 12:39:27;;;;;;;4.35;1.02;;;8.50;70.50;;;;;;5078238;28;20024;-78
2021/03/17 12:41:53;;;;;;;6.93;1.10;;;8.60;70.50;;;;;;5077852;28;20024;-78
2021/03/17 12:44:19;;;;;;;4.85;0.80;;;8.60;70.10;;;;;;5096100;28;20021;-78
2021/03/17 12:46:44;;;;;;;4.40;0.75;;;8.50;68.70;;;;;;5096613;28;20028;-78
2021/03/17 12:49:10;;;;;;;10.48;1.02;;;8.40;67.70;;;;;;5095628;28;20115;-77
2021/03/17 12:51:36;;;;;;;2.35;0.70;;;8.30;68.20;;;;;;5095720;28;20055;-78
2021/03/17 12:54:01;;;;;;;8.10;1.10;;;8.20;69.50;;;;;;5094978;28;20032;-78
2021/03/17 12:56:27;;;;;;;4.22;0.75;;;8.10;69.80;;;;;;5095024;28;20032;-78
2021/03/17 12:58:53;;;;;;;7.05;0.95;;;8.10;70.50;;;;;;5095751;28;20029;-78
2021/03/17 13:01:18;;;;;;;5.78;1.10;;;8.10;71.00;;;;;;5077731;28;20024;-78
2021/03/17 13:03:44;;;;;;;2.50;0.90;;;8.00;70.80;;;;;;5077284;28;20039;-78